Hegeler, Illinois
Current Conditions -  °F | °C
As of 3:15 PM on Monday 22 Dec 2014 (Local Time) from KDNV Reporting Station
Light Rain Light Rain  
Wind Chill:   Ceiling: 4400
Heat Index:   Visibility: 4mi
Dew Point:   Wind: 13mph
Humidity: 95%   Direction: 120°ESE
Pressure: 29.67"   Gusts: NA
Location:  40.1365°N, 87.6307°W
Report Text: KDNV 222115Z AUTO 12011KT 4SM -RA SCT021 BKN044 OVC050 05/05 A2967 RMK AO2 P0001 T00540047
Loading
Personal Weather Stations






























Interactive Weather Map New forecast layout! Learn more

10-Day Weather Forecast

Advertisements
Track Severe Weather on mobile